sensor_id;sensor_type;location;lat;lon;timestamp;pressure;altitude;pressure_sealevel;temperature;humidity
83563;BME280;73535;52.500;13.482;2024-03-25T00:00:27;99405.53;;;6.53;84.63
83563;BME280;73535;52.500;13.482;2024-03-25T00:02:52;99407.31;;;6.52;84.55
83563;BME280;73535;52.500;13.482;2024-03-25T00:05:17;99416.19;;;6.50;84.17
83563;BME280;73535;52.500;13.482;2024-03-25T00:07:48;99415.38;;;6.49;84.20
83563;BME280;73535;52.500;13.482;2024-03-25T00:10:14;99414.53;;;6.49;83.48
83563;BME280;73535;52.500;13.482;2024-03-25T00:12:39;99420.59;;;6.49;83.64
83563;BME280;73535;52.500;13.482;2024-03-25T00:15:05;99418.28;;;6.45;83.72
83563;BME280;73535;52.500;13.482;2024-03-25T00:17:30;99413.59;;;6.50;83.90
83563;BME280;73535;52.500;13.482;2024-03-25T00:19:55;99417.00;;;6.50;83.59
83563;BME280;73535;52.500;13.482;2024-03-25T00:22:21;99422.34;;;6.49;83.24
83563;BME280;73535;52.500;13.482;2024-03-25T00:24:47;99415.81;;;6.43;83.47
83563;BME280;73535;52.500;13.482;2024-03-25T00:27:14;99419.03;;;6.47;83.50
83563;BME280;73535;52.500;13.482;2024-03-25T00:29:39;99416.28;;;6.48;83.37
83563;BME280;73535;52.500;13.482;2024-03-25T00:32:05;99418.81;;;6.50;83.46
83563;BME280;73535;52.500;13.482;2024-03-25T00:34:30;99431.13;;;6.48;83.45
83563;BME280;73535;52.500;13.482;2024-03-25T00:36:56;99428.50;;;6.48;83.53
83563;BME280;73535;52.500;13.482;2024-03-25T00:39:21;99434.78;;;6.45;83.80
83563;BME280;73535;52.500;13.482;2024-03-25T00:41:47;99432.53;;;6.41;83.57
83563;BME280;73535;52.500;13.482;2024-03-25T00:44:12;99444.59;;;6.42;83.63
83563;BME280;73535;52.500;13.482;2024-03-25T00:46:37;99441.78;;;6.45;83.47
83563;BME280;73535;52.500;13.482;2024-03-25T00:49:02;99446.41;;;6.41;83.34
83563;BME280;73535;52.500;13.482;2024-03-25T00:51:28;99444.03;;;6.38;83.83
83563;BME280;73535;52.500;13.482;2024-03-25T00:53:53;99447.44;;;6.39;83.62
83563;BME280;73535;52.500;13.482;2024-03-25T00:56:18;99442.44;;;6.36;83.02
83563;BME280;73535;52.500;13.482;2024-03-25T00:58:43;99440.56;;;6.38;82.79
83563;BME280;73535;52.500;13.482;2024-03-25T01:01:11;99448.19;;;6.41;82.40
83563;BME280;73535;52.500;13.482;2024-03-25T01:03:36;99448.06;;;6.42;82.23
83563;BME280;73535;52.500;13.482;2024-03-25T01:06:02;99448.69;;;6.46;82.37
83563;BME280;73535;52.500;13.482;2024-03-25T01:08:27;99448.53;;;6.47;82.55
83563;BME280;73535;52.500;13.482;2024-03-25T01:10:52;99456.38;;;6.47;82.75
83563;BME280;73535;52.500;13.482;2024-03-25T01:13:17;99450.94;;;6.50;82.88
83563;BME280;73535;52.500;13.482;2024-03-25T01:15:43;99458.47;;;6.55;82.94
83563;BME280;73535;52.500;13.482;2024-03-25T01:18:08;99459.50;;;6.52;82.77
83563;BME280;73535;52.500;13.482;2024-03-25T01:20:33;99462.84;;;6.54;82.93
83563;BME280;73535;52.500;13.482;2024-03-25T01:22:58;99476.09;;;6.51;82.56
83563;BME280;73535;52.500;13.482;2024-03-25T01:25:24;99460.56;;;6.50;82.44
83563;BME280;73535;52.500;13.482;2024-03-25T01:27:50;99460.44;;;6.51;82.37
83563;BME280;73535;52.500;13.482;2024-03-25T01:30:15;99461.16;;;6.53;82.38
83563;BME280;73535;52.500;13.482;2024-03-25T01:32:41;99472.13;;;6.58;82.40
83563;BME280;73535;52.500;13.482;2024-03-25T01:35:07;99472.22;;;6.57;82.24
83563;BME280;73535;52.500;13.482;2024-03-25T01:37:32;99462.28;;;6.62;82.38
83563;BME280;73535;52.500;13.482;2024-03-25T01:39:57;99474.28;;;6.64;82.48
83563;BME280;73535;52.500;13.482;2024-03-25T01:42:23;99473.47;;;6.64;82.50
83563;BME280;73535;52.500;13.482;2024-03-25T01:44:48;99478.56;;;6.65;82.55
83563;BME280;73535;52.500;13.482;2024-03-25T01:47:14;99478.47;;;6.67;82.63
83563;BME280;73535;52.500;13.482;2024-03-25T01:49:40;99480.09;;;6.68;82.51
83563;BME280;73535;52.500;13.482;2024-03-25T01:52:05;99482.63;;;6.69;82.71
83563;BME280;73535;52.500;13.482;2024-03-25T01:54:31;99479.66;;;6.74;82.54
83563;BME280;73535;52.500;13.482;2024-03-25T01:56:56;99485.72;;;6.74;82.63
83563;BME280;73535;52.500;13.482;2024-03-25T01:59:23;99484.66;;;6.77;82.82
83563;BME280;73535;52.500;13.482;2024-03-25T02:01:48;99486.34;;;6.78;82.70
83563;BME280;73535;52.500;13.482;2024-03-25T02:04:14;99488.72;;;6.81;82.25
83563;BME280;73535;52.500;13.482;2024-03-25T02:06:41;99492.63;;;6.75;82.28
83563;BME280;73535;52.500;13.482;2024-03-25T02:09:06;99498.28;;;6.69;83.01
83563;BME280;73535;52.500;13.482;2024-03-25T02:11:32;99499.22;;;6.68;82.74
83563;BME280;73535;52.500;13.482;2024-03-25T02:13:57;99502.91;;;6.53;80.67
83563;BME280;73535;52.500;13.482;2024-03-25T02:16:23;99507.03;;;6.45;79.93
83563;BME280;73535;52.500;13.482;2024-03-25T02:18:50;99507.22;;;6.42;80.05
83563;BME280;73535;52.500;13.482;2024-03-25T02:21:15;99506.53;;;6.40;80.08
83563;BME280;73535;52.500;13.482;2024-03-25T02:23:42;99507.78;;;6.34;80.27
83563;BME280;73535;52.500;13.482;2024-03-25T02:26:07;99511.75;;;6.40;80.09
83563;BME280;73535;52.500;13.482;2024-03-25T02:28:33;99510.06;;;6.39;79.95
83563;BME280;73535;52.500;13.482;2024-03-25T02:30:58;99520.50;;;6.39;80.16
83563;BME280;73535;52.500;13.482;2024-03-25T02:33:23;99521.47;;;6.38;80.47
83563;BME280;73535;52.500;13.482;2024-03-25T02:35:48;99523.44;;;6.34;81.12
83563;BME280;73535;52.500;13.482;2024-03-25T02:38:14;99524.38;;;6.33;81.39
83563;BME280;73535;52.500;13.482;2024-03-25T02:40:42;99525.94;;;6.36;81.66
83563;BME280;73535;52.500;13.482;2024-03-25T02:43:08;99531.41;;;6.33;81.99
83563;BME280;73535;52.500;13.482;2024-03-25T02:45:33;99541.59;;;6.36;82.44
83563;BME280;73535;52.500;13.482;2024-03-25T02:47:58;99540.16;;;6.32;82.77
83563;BME280;73535;52.500;13.482;2024-03-25T02:50:24;99542.03;;;6.30;83.03
83563;BME280;73535;52.500;13.482;2024-03-25T02:52:49;99547.25;;;6.30;84.02
83563;BME280;73535;52.500;13.482;2024-03-25T02:55:14;99558.50;;;6.30;83.66
83563;BME280;73535;52.500;13.482;2024-03-25T02:57:39;99559.56;;;6.28;84.03
83563;BME280;73535;52.500;13.482;2024-03-25T03:00:05;99560.72;;;6.23;83.59
83563;BME280;73535;52.500;13.482;2024-03-25T03:02:30;99557.59;;;6.18;83.63
83563;BME280;73535;52.500;13.482;2024-03-25T03:04:56;99566.25;;;6.19;83.18
83563;BME280;73535;52.500;13.482;2024-03-25T03:07:21;99562.41;;;6.12;82.92
83563;BME280;73535;52.500;13.482;2024-03-25T03:09:46;99560.09;;;6.07;82.95
83563;BME280;73535;52.500;13.482;2024-03-25T03:12:11;99566.06;;;6.09;82.73
83563;BME280;73535;52.500;13.482;2024-03-25T03:14:37;99569.69;;;6.07;82.83
83563;BME280;73535;52.500;13.482;2024-03-25T03:17:02;99568.88;;;6.06;82.78
83563;BME280;73535;52.500;13.482;2024-03-25T03:19:30;99577.50;;;6.07;83.05
83563;BME280;73535;52.500;13.482;2024-03-25T03:21:55;99580.97;;;6.07;83.62
83563;BME280;73535;52.500;13.482;2024-03-25T03:24:20;99574.81;;;6.08;83.54
83563;BME280;73535;52.500;13.482;2024-03-25T03:26:46;99580.88;;;6.09;83.90
83563;BME280;73535;52.500;13.482;2024-03-25T03:29:11;99585.13;;;6.10;84.02
83563;BME280;73535;52.500;13.482;2024-03-25T03:31:37;99585.25;;;6.08;84.06
83563;BME280;73535;52.500;13.482;2024-03-25T03:34:02;99586.69;;;6.12;84.19
83563;BME280;73535;52.500;13.482;2024-03-25T03:36:27;99591.69;;;6.15;84.72
83563;BME280;73535;52.500;13.482;2024-03-25T03:38:52;99593.19;;;6.19;84.71
83563;BME280;73535;52.500;13.482;2024-03-25T03:41:19;99599.88;;;6.23;84.63
83563;BME280;73535;52.500;13.482;2024-03-25T03:43:44;99604.31;;;6.21;84.49
83563;BME280;73535;52.500;13.482;2024-03-25T03:46:09;99601.94;;;6.18;84.56
83563;BME280;73535;52.500;13.482;2024-03-25T03:48:35;99611.09;;;6.24;84.43
83563;BME280;73535;52.500;13.482;2024-03-25T03:51:00;99613.72;;;6.24;84.23
83563;BME280;73535;52.500;13.482;2024-03-25T03:53:26;99618.00;;;6.25;84.29
83563;BME280;73535;52.500;13.482;2024-03-25T03:55:54;99614.34;;;6.28;84.09
83563;BME280;73535;52.500;13.482;2024-03-25T03:58:21;99616.03;;;6.29;84.16
83563;BME280;73535;52.500;13.482;2024-03-25T04:00:46;99627.38;;;6.28;83.89
83563;BME280;73535;52.500;13.482;2024-03-25T04:03:11;99618.50;;;6.30;83.91
83563;BME280;73535;52.500;13.482;2024-03-25T04:05:36;99624.91;;;6.26;83.70
83563;BME280;73535;52.500;13.482;2024-03-25T04:08:01;99626.88;;;6.22;83.80
83563;BME280;73535;52.500;13.482;2024-03-25T04:10:27;99637.19;;;6.24;83.61
83563;BME280;73535;52.500;13.482;2024-03-25T04:12:52;99636.59;;;6.20;83.52
83563;BME280;73535;52.500;13.482;2024-03-25T04:15:17;99629.91;;;6.16;83.74
83563;BME280;73535;52.500;13.482;2024-03-25T04:17:43;99638.34;;;6.20;83.56
83563;BME280;73535;52.500;13.482;2024-03-25T04:20:13;99639.91;;;6.22;83.30
83563;BME280;73535;52.500;13.482;2024-03-25T04:22:45;99646.69;;;6.25;83.69
83563;BME280;73535;52.500;13.482;2024-03-25T04:25:11;99649.31;;;6.25;83.64
83563;BME280;73535;52.500;13.482;2024-03-25T04:27:43;99657.13;;;6.25;83.08
83563;BME280;73535;52.500;13.482;2024-03-25T04:30:10;99661.00;;;6.19;83.19
83563;BME280;73535;52.500;13.482;2024-03-25T04:32:36;99664.75;;;6.15;82.80
83563;BME280;73535;52.500;13.482;2024-03-25T04:35:02;99662.69;;;6.20;83.06
83563;BME280;73535;52.500;13.482;2024-03-25T04:37:28;99664.53;;;6.18;82.54
83563;BME280;73535;52.500;13.482;2024-03-25T04:39:54;99670.59;;;6.19;82.77
83563;BME280;73535;52.500;13.482;2024-03-25T04:42:20;99676.25;;;6.25;83.00
83563;BME280;73535;52.500;13.482;2024-03-25T04:44:45;99680.53;;;6.27;83.24
83563;BME280;73535;52.500;13.482;2024-03-25T04:47:10;99684.59;;;6.31;83.16
83563;BME280;73535;52.500;13.482;2024-03-25T04:49:36;99686.06;;;6.35;83.31
83563;BME280;73535;52.500;13.482;2024-03-25T04:52:01;99687.94;;;6.33;83.62
83563;BME280;73535;52.500;13.482;2024-03-25T04:54:28;99701.00;;;6.33;83.67
83563;BME280;73535;52.500;13.482;2024-03-25T04:56:53;99705.56;;;6.29;84.05
83563;BME280;73535;52.500;13.482;2024-03-25T04:59:18;99717.16;;;6.25;83.94
83563;BME280;73535;52.500;13.482;2024-03-25T05:01:43;99701.59;;;6.23;84.14
83563;BME280;73535;52.500;13.482;2024-03-25T05:04:09;99705.88;;;6.24;84.36
83563;BME280;73535;52.500;13.482;2024-03-25T05:06:34;99707.75;;;6.22;84.71
83563;BME280;73535;52.500;13.482;2024-03-25T05:08:59;99710.03;;;6.27;84.78
83563;BME280;73535;52.500;13.482;2024-03-25T05:11:25;99714.66;;;6.23;84.61
83563;BME280;73535;52.500;13.482;2024-03-25T05:13:50;99716.31;;;6.24;84.48
83563;BME280;73535;52.500;13.482;2024-03-25T05:16:15;99729.47;;;6.23;84.02
83563;BME280;73535;52.500;13.482;2024-03-25T05:18:41;99732.34;;;6.18;84.24
83563;BME280;73535;52.500;13.482;2024-03-25T05:21:06;99730.31;;;6.23;84.39
83563;BME280;73535;52.500;13.482;2024-03-25T05:23:31;99731.66;;;6.29;84.50
83563;BME280;73535;52.500;13.482;2024-03-25T05:25:56;99732.41;;;6.31;84.49
83563;BME280;73535;52.500;13.482;2024-03-25T05:28:22;99740.34;;;6.30;84.21
83563;BME280;73535;52.500;13.482;2024-03-25T05:30:47;99738.25;;;6.35;84.41
83563;BME280;73535;52.500;13.482;2024-03-25T05:33:12;99737.94;;;6.39;84.32
83563;BME280;73535;52.500;13.482;2024-03-25T05:35:37;99741.16;;;6.43;84.30
83563;BME280;73535;52.500;13.482;2024-03-25T05:38:03;99749.13;;;6.41;83.88
83563;BME280;73535;52.500;13.482;2024-03-25T05:40:29;99749.31;;;6.38;83.42
83563;BME280;73535;52.500;13.482;2024-03-25T05:42:54;99753.69;;;6.38;83.60
83563;BME280;73535;52.500;13.482;2024-03-25T05:45:19;99755.34;;;6.39;83.21
83563;BME280;73535;52.500;13.482;2024-03-25T05:47:44;99764.03;;;6.39;83.30
83563;BME280;73535;52.500;13.482;2024-03-25T05:50:10;99759.66;;;6.40;83.15
83563;BME280;73535;52.500;13.482;2024-03-25T05:52:35;99763.28;;;6.37;83.32
83563;BME280;73535;52.500;13.482;2024-03-25T05:55:01;99764.97;;;6.38;83.30
83563;BME280;73535;52.500;13.482;2024-03-25T05:57:26;99768.19;;;6.42;83.61
83563;BME280;73535;52.500;13.482;2024-03-25T05:59:51;99775.31;;;6.40;83.41
83563;BME280;73535;52.500;13.482;2024-03-25T06:02:16;99774.38;;;6.41;83.44
83563;BME280;73535;52.500;13.482;2024-03-25T06:04:42;99779.59;;;6.41;83.84
83563;BME280;73535;52.500;13.482;2024-03-25T06:07:07;99789.06;;;6.42;83.84
83563;BME280;73535;52.500;13.482;2024-03-25T06:09:33;99787.31;;;6.42;84.02
83563;BME280;73535;52.500;13.482;2024-03-25T06:11:58;99787.31;;;6.42;83.70
83563;BME280;73535;52.500;13.482;2024-03-25T06:14:23;99800.56;;;6.39;83.42
83563;BME280;73535;52.500;13.482;2024-03-25T06:16:49;99809.44;;;6.37;83.48
83563;BME280;73535;52.500;13.482;2024-03-25T06:19:14;99800.69;;;6.38;83.57
83563;BME280;73535;52.500;13.482;2024-03-25T06:21:39;99805.69;;;6.41;83.50
83563;BME280;73535;52.500;13.482;2024-03-25T06:24:05;99809.88;;;6.43;83.60
83563;BME280;73535;52.500;13.482;2024-03-25T06:26:30;99809.03;;;6.43;83.85
83563;BME280;73535;52.500;13.482;2024-03-25T06:28:55;99811.13;;;6.38;83.57
83563;BME280;73535;52.500;13.482;2024-03-25T06:31:20;99822.41;;;6.38;83.37
83563;BME280;73535;52.500;13.482;2024-03-25T06:34:04;99834.78;;;6.35;83.46
83563;BME280;73535;52.500;13.482;2024-03-25T06:36:47;99823.41;;;6.36;83.41
83563;BME280;73535;52.500;13.482;2024-03-25T06:39:13;99825.72;;;6.40;83.67
83563;BME280;73535;52.500;13.482;2024-03-25T06:41:38;99838.66;;;6.42;83.48
83563;BME280;73535;52.500;13.482;2024-03-25T06:44:04;99837.94;;;6.40;83.41
83563;BME280;73535;52.500;13.482;2024-03-25T06:46:30;99836.81;;;6.44;83.61
83563;BME280;73535;52.500;13.482;2024-03-25T06:48:55;99849.94;;;6.42;83.18
83563;BME280;73535;52.500;13.482;2024-03-25T06:51:20;99841.28;;;6.42;83.68
83563;BME280;73535;52.500;13.482;2024-03-25T06:53:46;99843.88;;;6.42;83.70
83563;BME280;73535;52.500;13.482;2024-03-25T06:56:11;99856.00;;;6.43;83.70
83563;BME280;73535;52.500;13.482;2024-03-25T06:58:36;99861.22;;;6.43;83.70
83563;BME280;73535;52.500;13.482;2024-03-25T07:01:07;99863.63;;;6.46;83.97
83563;BME280;73535;52.500;13.482;2024-03-25T07:03:33;99869.25;;;6.40;83.50
83563;BME280;73535;52.500;13.482;2024-03-25T07:05:59;99883.97;;;6.41;83.88
83563;BME280;73535;52.500;13.482;2024-03-25T07:08:25;99877.72;;;6.43;83.50
83563;BME280;73535;52.500;13.482;2024-03-25T07:10:51;99876.88;;;6.43;83.55
83563;BME280;73535;52.500;13.482;2024-03-25T07:13:17;99884.72;;;6.43;83.47
83563;BME280;73535;52.500;13.482;2024-03-25T07:15:43;99887.53;;;6.40;83.59
83563;BME280;73535;52.500;13.482;2024-03-25T07:18:08;99895.66;;;6.35;83.96
83563;BME280;73535;52.500;13.482;2024-03-25T07:20:36;99908.59;;;6.37;84.33
83563;BME280;73535;52.500;13.482;2024-03-25T07:23:01;99911.41;;;6.34;84.20
83563;BME280;73535;52.500;13.482;2024-03-25T07:25:26;99909.63;;;6.34;84.76
83563;BME280;73535;52.500;13.482;2024-03-25T07:27:52;99906.50;;;6.29;84.39
83563;BME280;73535;52.500;13.482;2024-03-25T07:30:17;99910.28;;;6.38;84.38
83563;BME280;73535;52.500;13.482;2024-03-25T07:32:42;99915.50;;;6.38;83.96
83563;BME280;73535;52.500;13.482;2024-03-25T07:35:10;99929.28;;;6.40;84.02
83563;BME280;73535;52.500;13.482;2024-03-25T07:37:36;99932.91;;;6.37;84.02
83563;BME280;73535;52.500;13.482;2024-03-25T07:40:01;99926.41;;;6.30;83.47
83563;BME280;73535;52.500;13.482;2024-03-25T07:42:28;99923.59;;;6.33;83.88
83563;BME280;73535;52.500;13.482;2024-03-25T07:44:53;99941.97;;;6.32;84.29
83563;BME280;73535;52.500;13.482;2024-03-25T07:47:18;99945.31;;;6.34;84.15
83563;BME280;73535;52.500;13.482;2024-03-25T07:49:44;99950.53;;;6.34;84.04
83563;BME280;73535;52.500;13.482;2024-03-25T07:52:09;99948.47;;;6.39;84.19
83563;BME280;73535;52.500;13.482;2024-03-25T07:54:34;99944.00;;;6.41;85.16
83563;BME280;73535;52.500;13.482;2024-03-25T07:57:01;99955.09;;;6.44;84.70
83563;BME280;73535;52.500;13.482;2024-03-25T07:59:27;99958.91;;;6.39;84.01
83563;BME280;73535;52.500;13.482;2024-03-25T08:01:52;99951.06;;;6.39;84.14
83563;BME280;73535;52.500;13.482;2024-03-25T08:04:17;99968.81;;;6.34;83.93
83563;BME280;73535;52.500;13.482;2024-03-25T08:06:43;99957.25;;;6.38;84.00
83563;BME280;73535;52.500;13.482;2024-03-25T08:09:08;99978.50;;;6.32;83.51
83563;BME280;73535;52.500;13.482;2024-03-25T08:11:38;99968.91;;;6.32;83.43
83563;BME280;73535;52.500;13.482;2024-03-25T08:14:04;99972.44;;;6.31;83.16
83563;BME280;73535;52.500;13.482;2024-03-25T08:16:29;99974.75;;;6.36;83.51
83563;BME280;73535;52.500;13.482;2024-03-25T08:18:54;99970.84;;;6.43;83.58
83563;BME280;73535;52.500;13.482;2024-03-25T08:21:19;99975.31;;;6.41;83.33
83563;BME280;73535;52.500;13.482;2024-03-25T08:23:45;99978.13;;;6.38;82.98
83563;BME280;73535;52.500;13.482;2024-03-25T08:26:10;99983.59;;;6.47;83.20
83563;BME280;73535;52.500;13.482;2024-03-25T08:28:35;99989.84;;;6.45;83.10
83563;BME280;73535;52.500;13.482;2024-03-25T08:31:01;99997.94;;;6.54;83.31
83563;BME280;73535;52.500;13.482;2024-03-25T08:33:26;99991.28;;;6.63;83.24
83563;BME280;73535;52.500;13.482;2024-03-25T08:35:51;100002.56;;;6.63;83.04
83563;BME280;73535;52.500;13.482;2024-03-25T08:38:16;100005.84;;;6.67;82.54
83563;BME280;73535;52.500;13.482;2024-03-25T08:40:42;100007.28;;;6.71;83.03
83563;BME280;73535;52.500;13.482;2024-03-25T08:43:07;99999.91;;;6.77;82.42
83563;BME280;73535;52.500;13.482;2024-03-25T08:45:32;100009.50;;;6.77;82.53
83563;BME280;73535;52.500;13.482;2024-03-25T08:47:58;100013.63;;;6.81;82.80
83563;BME280;73535;52.500;13.482;2024-03-25T08:50:23;100005.38;;;6.87;82.19
83563;BME280;73535;52.500;13.482;2024-03-25T08:52:48;100012.06;;;6.91;82.10
83563;BME280;73535;52.500;13.482;2024-03-25T08:55:14;100013.75;;;6.92;82.25
83563;BME280;73535;52.500;13.482;2024-03-25T08:57:39;100018.06;;;6.93;82.32
83563;BME280;73535;52.500;13.482;2024-03-25T09:00:05;100022.13;;;6.97;81.73
83563;BME280;73535;52.500;13.482;2024-03-25T09:02:35;100025.56;;;6.98;81.16
83563;BME280;73535;52.500;13.482;2024-03-25T09:05:00;100029.56;;;7.03;81.18
83563;BME280;73535;52.500;13.482;2024-03-25T09:07:25;100031.53;;;7.00;80.75
83563;BME280;73535;52.500;13.482;2024-03-25T09:09:51;100034.53;;;6.94;80.30
83563;BME280;73535;52.500;13.482;2024-03-25T09:12:34;100046.94;;;7.04;81.13
83563;BME280;73535;52.500;13.482;2024-03-25T09:15:00;100046.94;;;7.04;80.25
83563;BME280;73535;52.500;13.482;2024-03-25T09:17:25;100047.66;;;7.06;80.47
83563;BME280;73535;52.500;13.482;2024-03-25T09:19:50;100038.56;;;7.12;80.83
83563;BME280;73535;52.500;13.482;2024-03-25T09:22:15;100046.63;;;7.09;80.40
83563;BME280;73535;52.500;13.482;2024-03-25T09:24:41;100056.22;;;7.08;80.05
83563;BME280;73535;52.500;13.482;2024-03-25T09:27:06;100057.50;;;7.15;80.38
83563;BME280;73535;52.500;13.482;2024-03-25T09:29:31;100059.41;;;7.13;80.51
83563;BME280;73535;52.500;13.482;2024-03-25T09:31:56;100055.75;;;7.16;79.72
83563;BME280;73535;52.500;13.482;2024-03-25T09:34:21;100060.66;;;7.20;79.79
83563;BME280;73535;52.500;13.482;2024-03-25T09:36:47;100063.06;;;7.23;79.33
83563;BME280;73535;52.500;13.482;2024-03-25T09:39:12;100060.06;;;7.29;79.23
83563;BME280;73535;52.500;13.482;2024-03-25T09:41:40;100066.13;;;7.30;78.86
83563;BME280;73535;52.500;13.482;2024-03-25T09:44:07;100067.16;;;7.27;78.04
83563;BME280;73535;52.500;13.482;2024-03-25T09:46:33;100071.44;;;7.28;78.38
83563;BME280;73535;52.500;13.482;2024-03-25T09:48:59;100071.25;;;7.31;77.68
83563;BME280;73535;52.500;13.482;2024-03-25T09:51:24;100077.31;;;7.32;77.41
83563;BME280;73535;52.500;13.482;2024-03-25T09:53:50;100074.69;;;7.32;77.01
83563;BME280;73535;52.500;13.482;2024-03-25T09:56:15;100083.09;;;7.37;77.61
83563;BME280;73535;52.500;13.482;2024-03-25T09:58:41;100084.31;;;7.31;77.59
83563;BME280;73535;52.500;13.482;2024-03-25T10:01:09;100083.91;;;7.37;77.79
83563;BME280;73535;52.500;13.482;2024-03-25T10:03:34;100084.47;;;7.43;77.78
83563;BME280;73535;52.500;13.482;2024-03-25T10:05:59;100088.75;;;7.44;77.32
83563;BME280;73535;52.500;13.482;2024-03-25T10:08:24;100090.22;;;7.48;78.14
83563;BME280;73535;52.500;13.482;2024-03-25T10:10:55;100102.50;;;7.60;77.72
83563;BME280;73535;52.500;13.482;2024-03-25T10:13:21;100094.00;;;7.56;76.88
83563;BME280;73535;52.500;13.482;2024-03-25T10:15:49;100093.94;;;7.70;77.43
83563;BME280;73535;52.500;13.482;2024-03-25T10:18:14;100088.09;;;7.79;77.17
83563;BME280;73535;52.500;13.482;2024-03-25T10:20:52;100088.09;;;7.79;76.33
83563;BME280;73535;52.500;13.482;2024-03-25T10:23:23;100106.06;;;7.84;76.00
83563;BME280;73535;52.500;13.482;2024-03-25T10:25:48;100097.81;;;7.90;76.42
83563;BME280;73535;52.500;13.482;2024-03-25T10:28:13;100094.59;;;7.86;75.21
83563;BME280;73535;52.500;13.482;2024-03-25T10:30:39;100104.41;;;7.83;74.36
83563;BME280;73535;52.500;13.482;2024-03-25T10:33:06;100109.44;;;7.86;73.93
83563;BME280;73535;52.500;13.482;2024-03-25T10:35:33;100104.63;;;7.92;74.60
83563;BME280;73535;52.500;13.482;2024-03-25T10:38:02;100108.06;;;7.93;73.42
83563;BME280;73535;52.500;13.482;2024-03-25T10:40:30;100097.41;;;7.96;73.36
83563;BME280;73535;52.500;13.482;2024-03-25T10:45:25;100107.13;;;7.94;71.95
83563;BME280;73535;52.500;13.482;2024-03-25T10:47:55;100120.03;;;7.97;71.93
83563;BME280;73535;52.500;13.482;2024-03-25T10:50:26;100114.06;;;7.95;70.68
83563;BME280;73535;52.500;13.482;2024-03-25T10:52:53;100112.16;;;7.97;70.07
83563;BME280;73535;52.500;13.482;2024-03-25T10:55:20;100122.22;;;8.03;70.07
83563;BME280;73535;52.500;13.482;2024-03-25T10:57:47;100106.09;;;8.09;70.41
83563;BME280;73535;52.500;13.482;2024-03-25T11:00:14;100113.63;;;8.14;69.83
83563;BME280;73535;52.500;13.482;2024-03-25T11:02:42;100111.22;;;8.23;69.26
83563;BME280;73535;52.500;13.482;2024-03-25T11:05:09;100109.88;;;8.30;69.24
83563;BME280;73535;52.500;13.482;2024-03-25T11:07:35;100112.41;;;8.32;68.75
83563;BME280;73535;52.500;13.482;2024-03-25T11:10:04;100106.44;;;8.42;69.24
83563;BME280;73535;52.500;13.482;2024-03-25T11:12:41;100104.66;;;8.43;67.85
83563;BME280;73535;52.500;13.482;2024-03-25T11:15:07;100104.22;;;8.49;67.91
83563;BME280;73535;52.500;13.482;2024-03-25T11:17:33;100106.72;;;8.50;66.92
83563;BME280;73535;52.500;13.482;2024-03-25T11:20:09;100115.41;;;8.64;67.41
83563;BME280;73535;52.500;13.482;2024-03-25T11:22:35;100108.47;;;8.75;67.89
83563;BME280;73535;52.500;13.482;2024-03-25T11:25:07;100110.03;;;8.78;66.62
83563;BME280;73535;52.500;13.482;2024-03-25T11:27:35;100098.72;;;8.77;65.76
83563;BME280;73535;52.500;13.482;2024-03-25T11:30:01;100105.97;;;8.97;66.44
83563;BME280;73535;52.500;13.482;2024-03-25T11:32:27;100106.09;;;8.96;65.47
83563;BME280;73535;52.500;13.482;2024-03-25T11:34:52;100108.81;;;8.94;64.11
83563;BME280;73535;52.500;13.482;2024-03-25T11:37:17;100099.25;;;9.06;64.85
83563;BME280;73535;52.500;13.482;2024-03-25T11:39:43;100101.16;;;9.04;64.21
83563;BME280;73535;52.500;13.482;2024-03-25T11:42:08;100098.31;;;9.07;63.63
83563;BME280;73535;52.500;13.482;2024-03-25T11:44:37;100096.25;;;8.99;63.82
83563;BME280;73535;52.500;13.482;2024-03-25T11:47:03;100106.25;;;9.05;64.15
83563;BME280;73535;52.500;13.482;2024-03-25T11:49:30;100104.25;;;9.09;64.34
83563;BME280;73535;52.500;13.482;2024-03-25T11:51:55;100103.16;;;9.24;64.57
83563;BME280;73535;52.500;13.482;2024-03-25T11:54:20;100102.09;;;9.27;63.16
83563;BME280;73535;52.500;13.482;2024-03-25T11:56:46;100108.13;;;9.16;62.27
83563;BME280;73535;52.500;13.482;2024-03-25T11:59:11;100105.28;;;9.19;62.85
83563;BME280;73535;52.500;13.482;2024-03-25T12:01:37;100106.56;;;9.14;62.71
83563;BME280;73535;52.500;13.482;2024-03-25T12:04:16;100107.50;;;9.13;62.72
83563;BME280;73535;52.500;13.482;2024-03-25T12:06:41;100107.72;;;9.09;61.09
83563;BME280;73535;52.500;13.482;2024-03-25T12:09:07;100104.81;;;9.01;60.96
83563;BME280;73535;52.500;13.482;2024-03-25T12:11:51;100113.09;;;9.08;61.78
83563;BME280;73535;52.500;13.482;2024-03-25T12:14:16;100103.72;;;9.17;62.00
83563;BME280;73535;52.500;13.482;2024-03-25T12:16:42;100108.00;;;9.18;62.13
83563;BME280;73535;52.500;13.482;2024-03-25T12:19:07;100108.41;;;9.24;62.00
83563;BME280;73535;52.500;13.482;2024-03-25T12:21:33;100105.22;;;9.32;62.65
83563;BME280;73535;52.500;13.482;2024-03-25T12:23:59;100102.00;;;9.28;61.91
83563;BME280;73535;52.500;13.482;2024-03-25T12:26:25;100103.88;;;9.26;62.12
83563;BME280;73535;52.500;13.482;2024-03-25T12:28:50;100102.31;;;9.24;61.99
83563;BME280;73535;52.500;13.482;2024-03-25T12:31:15;100100.44;;;9.26;61.63
83563;BME280;73535;52.500;13.482;2024-03-25T12:33:42;100091.00;;;9.23;61.44
83563;BME280;73535;52.500;13.482;2024-03-25T12:36:07;100105.38;;;9.18;61.18
83563;BME280;73535;52.500;13.482;2024-03-25T12:38:33;100098.03;;;9.23;61.59
83563;BME280;73535;52.500;13.482;2024-03-25T12:41:06;100099.19;;;9.19;62.51
83563;BME280;73535;52.500;13.482;2024-03-25T12:43:32;100104.78;;;9.14;63.07
83563;BME280;73535;52.500;13.482;2024-03-25T12:45:59;100106.34;;;9.17;62.96
83563;BME280;73535;52.500;13.482;2024-03-25T12:48:24;100097.06;;;9.24;63.02
83563;BME280;73535;52.500;13.482;2024-03-25T12:50:50;100108.31;;;9.26;62.72
83563;BME280;73535;52.500;13.482;2024-03-25T12:53:17;100104.41;;;9.31;62.64